sensor_id;sensor_type;location;lat;lon;timestamp;pressure;altitude;pressure_sealevel;temperature;humidity
65614;BME280;52283;49.292;10.572;2023-08-12T00:02:01;96892.97;;;19.74;100.00
65614;BME280;52283;49.292;10.572;2023-08-12T00:04:27;96901.06;;;19.70;100.00
65614;BME280;52283;49.292;10.572;2023-08-12T00:06:54;96896.38;;;19.72;100.00
65614;BME280;52283;49.292;10.572;2023-08-12T00:09:23;96894.28;;;19.73;100.00
65614;BME280;52283;49.292;10.572;2023-08-12T00:11:51;96901.84;;;19.70;100.00
65614;BME280;52283;49.292;10.572;2023-08-12T00:14:18;96904.06;;;19.64;100.00
65614;BME280;52283;49.292;10.572;2023-08-12T00:16:45;96898.75;;;19.61;100.00
65614;BME280;52283;49.292;10.572;2023-08-12T00:19:11;96901.16;;;19.57;100.00
65614;BME280;52283;49.292;10.572;2023-08-12T00:21:38;96894.38;;;19.39;100.00
65614;BME280;52283;49.292;10.572;2023-08-12T00:24:06;96897.19;;;19.39;100.00
65614;BME280;52283;49.292;10.572;2023-08-12T00:26:32;96901.19;;;19.23;100.00
65614;BME280;52283;49.292;10.572;2023-08-12T00:28:58;96898.38;;;19.23;100.00
65614;BME280;52283;49.292;10.572;2023-08-12T00:31:26;96884.75;;;19.21;100.00
65614;BME280;52283;49.292;10.572;2023-08-12T00:33:53;96887.69;;;19.15;100.00
65614;BME280;52283;49.292;10.572;2023-08-12T00:36:19;96881.91;;;19.00;100.00
65614;BME280;52283;49.292;10.572;2023-08-12T00:38:46;96881.25;;;18.94;100.00
65614;BME280;52283;49.292;10.572;2023-08-12T00:41:12;96882.28;;;18.83;100.00
65614;BME280;52283;49.292;10.572;2023-08-12T00:43:38;96882.44;;;18.65;100.00
65614;BME280;52283;49.292;10.572;2023-08-12T00:46:05;96885.69;;;18.69;100.00
65614;BME280;52283;49.292;10.572;2023-08-12T00:48:33;96881.97;;;18.74;100.00
65614;BME280;52283;49.292;10.572;2023-08-12T00:50:59;96883.06;;;18.71;100.00
65614;BME280;52283;49.292;10.572;2023-08-12T00:53:26;96879.03;;;18.53;100.00
65614;BME280;52283;49.292;10.572;2023-08-12T00:55:53;96882.44;;;18.65;100.00
65614;BME280;52283;49.292;10.572;2023-08-12T00:58:20;96871.88;;;18.52;100.00
65614;BME280;52283;49.292;10.572;2023-08-12T01:00:47;96868.50;;;18.53;100.00
65614;BME280;52283;49.292;10.572;2023-08-12T01:03:14;96874.59;;;18.57;100.00
65614;BME280;52283;49.292;10.572;2023-08-12T01:05:42;96868.94;;;18.44;100.00
65614;BME280;52283;49.292;10.572;2023-08-12T01:08:09;96873.44;;;18.40;100.00
65614;BME280;52283;49.292;10.572;2023-08-12T01:10:37;96864.44;;;18.62;100.00
65614;BME280;52283;49.292;10.572;2023-08-12T01:13:14;96860.81;;;18.41;100.00
65614;BME280;52283;49.292;10.572;2023-08-12T01:15:43;96857.06;;;18.59;100.00
65614;BME280;52283;49.292;10.572;2023-08-12T01:18:11;96852.06;;;18.52;100.00
65614;BME280;52283;49.292;10.572;2023-08-12T01:20:39;96846.94;;;18.50;100.00
65614;BME280;52283;49.292;10.572;2023-08-12T01:23:10;96857.38;;;18.69;100.00
65614;BME280;52283;49.292;10.572;2023-08-12T01:25:37;96840.81;;;18.73;100.00
65614;BME280;52283;49.292;10.572;2023-08-12T01:28:04;96846.78;;;18.82;100.00
65614;BME280;52283;49.292;10.572;2023-08-12T01:30:32;96837.53;;;18.82;100.00
65614;BME280;52283;49.292;10.572;2023-08-12T01:33:02;96830.63;;;18.91;100.00
65614;BME280;52283;49.292;10.572;2023-08-12T01:35:36;96834.00;;;18.89;100.00
65614;BME280;52283;49.292;10.572;2023-08-12T01:38:06;96832.41;;;18.80;100.00
65614;BME280;52283;49.292;10.572;2023-08-12T01:40:38;96826.75;;;18.80;100.00
65614;BME280;52283;49.292;10.572;2023-08-12T01:43:04;96824.63;;;18.60;100.00
65614;BME280;52283;49.292;10.572;2023-08-12T01:45:32;96821.78;;;18.60;100.00
65614;BME280;52283;49.292;10.572;2023-08-12T01:47:58;96821.59;;;18.45;100.00
65614;BME280;52283;49.292;10.572;2023-08-12T01:50:25;96820.28;;;18.59;100.00
65614;BME280;52283;49.292;10.572;2023-08-12T01:52:51;96815.47;;;18.67;100.00
65614;BME280;52283;49.292;10.572;2023-08-12T01:55:18;96815.16;;;18.92;100.00
65614;BME280;52283;49.292;10.572;2023-08-12T01:57:46;96813.97;;;18.87;100.00
65614;BME280;52283;49.292;10.572;2023-08-12T02:00:12;96812.66;;;18.88;100.00
65614;BME280;52283;49.292;10.572;2023-08-12T02:02:39;96808.25;;;18.79;100.00
65614;BME280;52283;49.292;10.572;2023-08-12T02:05:06;96804.50;;;18.50;100.00
65614;BME280;52283;49.292;10.572;2023-08-12T02:07:32;96806.34;;;18.48;100.00
65614;BME280;52283;49.292;10.572;2023-08-12T02:09:59;96805.81;;;18.49;100.00
65614;BME280;52283;49.292;10.572;2023-08-12T02:12:25;96800.06;;;18.42;100.00
65614;BME280;52283;49.292;10.572;2023-08-12T02:14:53;96803.19;;;18.65;100.00
65614;BME280;52283;49.292;10.572;2023-08-12T02:17:19;96804.50;;;18.64;100.00
65614;BME280;52283;49.292;10.572;2023-08-12T02:19:46;96805.69;;;18.55;100.00
65614;BME280;52283;49.292;10.572;2023-08-12T02:22:12;96801.81;;;18.79;100.00
65614;BME280;52283;49.292;10.572;2023-08-12T02:24:39;96796.94;;;18.79;100.00
65614;BME280;52283;49.292;10.572;2023-08-12T02:27:05;96798.34;;;18.73;100.00
65614;BME280;52283;49.292;10.572;2023-08-12T02:29:32;96796.66;;;18.56;100.00
65614;BME280;52283;49.292;10.572;2023-08-12T02:31:59;96796.81;;;18.72;100.00
65614;BME280;52283;49.292;10.572;2023-08-12T02:34:26;96801.41;;;18.75;100.00
65614;BME280;52283;49.292;10.572;2023-08-12T02:36:52;96785.31;;;18.70;100.00
65614;BME280;52283;49.292;10.572;2023-08-12T02:39:19;96791.88;;;18.51;100.00
65614;BME280;52283;49.292;10.572;2023-08-12T02:41:45;96789.50;;;18.42;100.00
65614;BME280;52283;49.292;10.572;2023-08-12T02:44:12;96785.19;;;18.62;100.00
65614;BME280;52283;49.292;10.572;2023-08-12T02:46:38;96791.66;;;18.63;100.00
65614;BME280;52283;49.292;10.572;2023-08-12T02:49:06;96786.06;;;18.70;100.00
65614;BME280;52283;49.292;10.572;2023-08-12T02:51:32;96781.84;;;18.64;100.00
65614;BME280;52283;49.292;10.572;2023-08-12T02:53:59;96779.53;;;18.62;100.00
65614;BME280;52283;49.292;10.572;2023-08-12T02:56:25;96784.50;;;18.82;100.00
65614;BME280;52283;49.292;10.572;2023-08-12T02:58:52;96779.31;;;18.94;100.00
65614;BME280;52283;49.292;10.572;2023-08-12T03:01:18;96774.75;;;18.91;100.00
65614;BME280;52283;49.292;10.572;2023-08-12T03:03:45;96777.09;;;19.00;100.00
65614;BME280;52283;49.292;10.572;2023-08-12T03:06:13;96770.53;;;19.05;100.00
65614;BME280;52283;49.292;10.572;2023-08-12T03:08:39;96770.34;;;19.03;100.00
65614;BME280;52283;49.292;10.572;2023-08-12T03:11:06;96769.28;;;19.14;100.00
65614;BME280;52283;49.292;10.572;2023-08-12T03:13:32;96768.06;;;19.02;100.00
65614;BME280;52283;49.292;10.572;2023-08-12T03:15:58;96769.63;;;19.10;100.00
65614;BME280;52283;49.292;10.572;2023-08-12T03:18:25;96768.88;;;19.10;100.00
65614;BME280;52283;49.292;10.572;2023-08-12T03:20:51;96771.78;;;18.97;100.00
65614;BME280;52283;49.292;10.572;2023-08-12T03:23:19;96772.13;;;19.14;100.00
65614;BME280;52283;49.292;10.572;2023-08-12T03:25:46;96775.94;;;19.16;100.00
65614;BME280;52283;49.292;10.572;2023-08-12T03:28:13;96777.78;;;19.14;100.00
65614;BME280;52283;49.292;10.572;2023-08-12T03:30:39;96775.38;;;19.18;100.00
65614;BME280;52283;49.292;10.572;2023-08-12T03:33:06;96771.56;;;19.15;100.00
65614;BME280;52283;49.292;10.572;2023-08-12T03:35:32;96777.38;;;19.10;100.00
65614;BME280;52283;49.292;10.572;2023-08-12T03:37:59;96775.59;;;18.99;100.00
65614;BME280;52283;49.292;10.572;2023-08-12T03:40:27;96782.84;;;18.87;100.00
65614;BME280;52283;49.292;10.572;2023-08-12T03:42:53;96773.56;;;18.86;100.00
65614;BME280;52283;49.292;10.572;2023-08-12T03:45:20;96772.25;;;18.67;100.00
65614;BME280;52283;49.292;10.572;2023-08-12T03:47:46;96767.34;;;18.67;100.00
65614;BME280;52283;49.292;10.572;2023-08-12T03:50:12;96767.16;;;18.52;100.00
65614;BME280;52283;49.292;10.572;2023-08-12T03:52:39;96758.66;;;18.65;100.00
65614;BME280;52283;49.292;10.572;2023-08-12T03:55:06;96754.63;;;18.61;100.00
65614;BME280;52283;49.292;10.572;2023-08-12T03:57:34;96751.69;;;18.53;100.00
65614;BME280;52283;49.292;10.572;2023-08-12T04:00:01;96753.41;;;18.35;100.00
65614;BME280;52283;49.292;10.572;2023-08-12T04:02:28;96752.66;;;18.35;100.00
65614;BME280;52283;49.292;10.572;2023-08-12T04:04:54;96752.34;;;18.59;100.00
65614;BME280;52283;49.292;10.572;2023-08-12T04:07:21;96757.13;;;18.64;100.00
65614;BME280;52283;49.292;10.572;2023-08-12T04:09:47;96759.72;;;18.75;100.00
65614;BME280;52283;49.292;10.572;2023-08-12T04:12:14;96766.88;;;18.76;100.00
65614;BME280;52283;49.292;10.572;2023-08-12T04:14:42;96756.03;;;18.88;100.00
65614;BME280;52283;49.292;10.572;2023-08-12T04:17:09;96752.59;;;18.82;100.00
65614;BME280;52283;49.292;10.572;2023-08-12T04:19:35;96763.84;;;18.74;100.00
65614;BME280;52283;49.292;10.572;2023-08-12T04:22:02;96761.34;;;18.71;100.00
65614;BME280;52283;49.292;10.572;2023-08-12T04:24:28;96755.78;;;18.44;100.00
65614;BME280;52283;49.292;10.572;2023-08-12T04:26:54;96750.28;;;18.25;100.00
65614;BME280;52283;49.292;10.572;2023-08-12T04:29:21;96753.06;;;18.39;100.00
65614;BME280;52283;49.292;10.572;2023-08-12T04:31:49;96749.16;;;18.42;100.00
65614;BME280;52283;49.292;10.572;2023-08-12T04:34:15;96742.25;;;18.50;100.00
65614;BME280;52283;49.292;10.572;2023-08-12T04:36:42;96739.16;;;18.27;100.00
65614;BME280;52283;49.292;10.572;2023-08-12T04:39:08;96736.75;;;18.32;100.00
65614;BME280;52283;49.292;10.572;2023-08-12T04:41:35;96728.63;;;18.28;100.00
65614;BME280;52283;49.292;10.572;2023-08-12T04:44:04;96730.44;;;18.39;100.00
65614;BME280;52283;49.292;10.572;2023-08-12T04:46:31;96733.81;;;18.37;100.00
65614;BME280;52283;49.292;10.572;2023-08-12T04:48:59;96739.50;;;18.58;100.00
65614;BME280;52283;49.292;10.572;2023-08-12T04:51:25;96739.59;;;18.66;100.00
65614;BME280;52283;49.292;10.572;2023-08-12T04:53:52;96736.31;;;18.75;100.00
65614;BME280;52283;49.292;10.572;2023-08-12T04:56:18;96735.75;;;18.76;100.00
65614;BME280;52283;49.292;10.572;2023-08-12T04:58:45;96731.41;;;18.75;100.00
65614;BME280;52283;49.292;10.572;2023-08-12T05:01:11;96734.50;;;18.51;100.00
65614;BME280;52283;49.292;10.572;2023-08-12T05:03:38;96730.91;;;18.29;100.00
65614;BME280;52283;49.292;10.572;2023-08-12T05:06:05;96731.00;;;18.37;100.00
65614;BME280;52283;49.292;10.572;2023-08-12T05:08:32;96726.31;;;18.61;100.00
65614;BME280;52283;49.292;10.572;2023-08-12T05:10:58;96736.16;;;18.80;100.00
65614;BME280;52283;49.292;10.572;2023-08-12T05:13:25;96725.09;;;18.90;100.00
65614;BME280;52283;49.292;10.572;2023-08-12T05:15:53;96722.09;;;19.16;100.00
65614;BME280;52283;49.292;10.572;2023-08-12T05:18:21;96722.19;;;19.32;100.00
65614;BME280;52283;49.292;10.572;2023-08-12T05:20:48;96723.91;;;19.35;100.00
65614;BME280;52283;49.292;10.572;2023-08-12T05:23:16;96717.19;;;19.45;100.00
65614;BME280;52283;49.292;10.572;2023-08-12T05:25:43;96716.56;;;19.60;100.00
65614;BME280;52283;49.292;10.572;2023-08-12T05:28:09;96716.88;;;19.85;100.00
65614;BME280;52283;49.292;10.572;2023-08-12T05:30:36;96718.50;;;19.73;100.00
65614;BME280;52283;49.292;10.572;2023-08-12T05:33:04;96721.97;;;19.87;100.00
65614;BME280;52283;49.292;10.572;2023-08-12T05:35:32;96721.31;;;20.09;100.00
65614;BME280;52283;49.292;10.572;2023-08-12T05:37:59;96723.81;;;20.20;100.00
65614;BME280;52283;49.292;10.572;2023-08-12T05:40:27;96719.09;;;20.30;100.00
65614;BME280;52283;49.292;10.572;2023-08-12T05:42:53;96722.41;;;20.50;100.00
65614;BME280;52283;49.292;10.572;2023-08-12T05:45:20;96726.75;;;20.43;100.00
65614;BME280;52283;49.292;10.572;2023-08-12T05:47:47;96730.91;;;20.50;100.00
65614;BME280;52283;49.292;10.572;2023-08-12T05:50:13;96733.75;;;20.57;100.00
65614;BME280;52283;49.292;10.572;2023-08-12T05:52:39;96726.56;;;20.49;100.00
65614;BME280;52283;49.292;10.572;2023-08-12T05:55:06;96722.78;;;20.54;100.00
65614;BME280;52283;49.292;10.572;2023-08-12T05:57:34;96728.47;;;20.54;100.00
65614;BME280;52283;49.292;10.572;2023-08-12T06:00:01;96718.81;;;20.49;100.00
65614;BME280;52283;49.292;10.572;2023-08-12T06:02:27;96734.28;;;20.40;100.00
65614;BME280;52283;49.292;10.572;2023-08-12T06:04:54;96731.88;;;20.52;100.00
65614;BME280;52283;49.292;10.572;2023-08-12T06:07:20;96734.69;;;20.45;100.00
65614;BME280;52283;49.292;10.572;2023-08-12T06:09:48;96724.69;;;20.51;100.00
65614;BME280;52283;49.292;10.572;2023-08-12T06:12:14;96733.69;;;20.34;100.00
65614;BME280;52283;49.292;10.572;2023-08-12T06:14:42;96728.25;;;20.44;100.00
65614;BME280;52283;49.292;10.572;2023-08-12T06:17:09;96725.13;;;20.19;100.00
65614;BME280;52283;49.292;10.572;2023-08-12T06:19:35;96722.63;;;20.08;100.00
65614;BME280;52283;49.292;10.572;2023-08-12T06:22:02;96730.22;;;20.13;100.00
65614;BME280;52283;49.292;10.572;2023-08-12T06:24:28;96722.91;;;20.33;100.00
65614;BME280;52283;49.292;10.572;2023-08-12T06:26:55;96724.72;;;20.07;100.00
65614;BME280;52283;49.292;10.572;2023-08-12T06:29:21;96723.72;;;20.49;100.00
65614;BME280;52283;49.292;10.572;2023-08-12T06:31:49;96728.13;;;20.73;100.00
65614;BME280;52283;49.292;10.572;2023-08-12T06:34:16;96713.19;;;20.87;100.00
65614;BME280;52283;49.292;10.572;2023-08-12T06:36:42;96706.53;;;21.00;100.00
65614;BME280;52283;49.292;10.572;2023-08-12T06:39:09;96720.19;;;21.09;100.00
65614;BME280;52283;49.292;10.572;2023-08-12T06:41:35;96720.00;;;21.15;100.00
65614;BME280;52283;49.292;10.572;2023-08-12T06:44:02;96714.84;;;21.44;100.00
65614;BME280;52283;49.292;10.572;2023-08-12T06:46:29;96726.44;;;21.38;100.00
65614;BME280;52283;49.292;10.572;2023-08-12T06:48:58;96717.53;;;21.42;100.00
65614;BME280;52283;49.292;10.572;2023-08-12T06:51:25;96719.38;;;21.62;100.00
65614;BME280;52283;49.292;10.572;2023-08-12T06:53:51;96709.34;;;21.61;100.00
65614;BME280;52283;49.292;10.572;2023-08-12T06:56:18;96712.97;;;21.54;100.00
65614;BME280;52283;49.292;10.572;2023-08-12T06:58:44;96710.91;;;21.47;100.00
65614;BME280;52283;49.292;10.572;2023-08-12T07:01:11;96715.25;;;21.40;100.00
65614;BME280;52283;49.292;10.572;2023-08-12T07:03:37;96724.31;;;21.69;100.00
65614;BME280;52283;49.292;10.572;2023-08-12T07:06:05;96736.47;;;21.54;100.00
65614;BME280;52283;49.292;10.572;2023-08-12T07:08:31;96733.78;;;21.72;100.00
65614;BME280;52283;49.292;10.572;2023-08-12T07:10:58;96729.31;;;22.01;100.00
65614;BME280;52283;49.292;10.572;2023-08-12T07:13:24;96736.19;;;21.83;100.00
65614;BME280;52283;49.292;10.572;2023-08-12T07:15:51;96740.00;;;21.78;100.00
65614;BME280;52283;49.292;10.572;2023-08-12T07:18:17;96736.34;;;22.08;100.00
65614;BME280;52283;49.292;10.572;2023-08-12T07:20:43;96734.44;;;22.10;100.00
65614;BME280;52283;49.292;10.572;2023-08-12T07:23:11;96724.69;;;21.58;100.00
65614;BME280;52283;49.292;10.572;2023-08-12T07:25:38;96727.09;;;21.84;100.00
65614;BME280;52283;49.292;10.572;2023-08-12T07:28:05;96719.44;;;22.02;100.00
65614;BME280;52283;49.292;10.572;2023-08-12T07:30:34;96731.19;;;22.06;100.00
65614;BME280;52283;49.292;10.572;2023-08-12T07:33:00;96733.75;;;21.79;100.00
65614;BME280;52283;49.292;10.572;2023-08-12T07:35:26;96737.72;;;21.84;100.00
65614;BME280;52283;49.292;10.572;2023-08-12T07:37:53;96745.88;;;21.87;100.00
65614;BME280;52283;49.292;10.572;2023-08-12T07:40:21;96747.75;;;21.85;100.00
65614;BME280;52283;49.292;10.572;2023-08-12T07:42:47;96735.38;;;22.13;100.00
65614;BME280;52283;49.292;10.572;2023-08-12T07:45:14;96726.09;;;21.97;100.00
65614;BME280;52283;49.292;10.572;2023-08-12T07:47:41;96724.88;;;21.60;100.00
65614;BME280;52283;49.292;10.572;2023-08-12T07:50:08;96725.06;;;21.62;100.00
65614;BME280;52283;49.292;10.572;2023-08-12T07:52:34;96729.13;;;21.99;100.00
65614;BME280;52283;49.292;10.572;2023-08-12T07:55:01;96729.97;;;22.32;100.00
65614;BME280;52283;49.292;10.572;2023-08-12T07:57:29;96733.63;;;22.17;100.00
65614;BME280;52283;49.292;10.572;2023-08-12T07:59:55;96734.97;;;21.46;100.00
65614;BME280;52283;49.292;10.572;2023-08-12T08:02:22;96732.91;;;21.31;100.00
65614;BME280;52283;49.292;10.572;2023-08-12T08:04:48;96728.53;;;21.45;100.00
65614;BME280;52283;49.292;10.572;2023-08-12T08:07:15;96726.78;;;21.57;100.00
65614;BME280;52283;49.292;10.572;2023-08-12T08:09:42;96724.94;;;22.00;100.00
65614;BME280;52283;49.292;10.572;2023-08-12T08:12:08;96723.13;;;22.35;100.00
65614;BME280;52283;49.292;10.572;2023-08-12T08:14:37;96718.25;;;22.86;100.00
65614;BME280;52283;49.292;10.572;2023-08-12T08:17:03;96721.34;;;23.05;100.00
65614;BME280;52283;49.292;10.572;2023-08-12T08:19:30;96723.28;;;23.02;100.00
65614;BME280;52283;49.292;10.572;2023-08-12T08:21:56;96721.09;;;23.10;100.00
65614;BME280;52283;49.292;10.572;2023-08-12T08:24:23;96722.34;;;23.42;100.00
65614;BME280;52283;49.292;10.572;2023-08-12T08:26:50;96720.44;;;23.45;100.00
65614;BME280;52283;49.292;10.572;2023-08-12T08:29:16;96718.84;;;23.51;100.00
65614;BME280;52283;49.292;10.572;2023-08-12T08:31:44;96710.69;;;23.48;100.00
65614;BME280;52283;49.292;10.572;2023-08-12T08:34:10;96713.59;;;23.23;100.00
65614;BME280;52283;49.292;10.572;2023-08-12T08:36:37;96716.75;;;22.85;100.00
65614;BME280;52283;49.292;10.572;2023-08-12T08:39:03;96722.44;;;23.09;100.00
65614;BME280;52283;49.292;10.572;2023-08-12T08:41:31;96722.31;;;23.67;100.00
65614;BME280;52283;49.292;10.572;2023-08-12T08:44:01;96711.38;;;24.42;100.00
65614;BME280;52283;49.292;10.572;2023-08-12T08:46:29;96706.69;;;24.37;100.00
65614;BME280;52283;49.292;10.572;2023-08-12T08:48:58;96723.22;;;24.66;100.00
65614;BME280;52283;49.292;10.572;2023-08-12T08:51:25;96723.25;;;24.75;100.00
65614;BME280;52283;49.292;10.572;2023-08-12T08:53:54;96715.59;;;25.05;97.55
65614;BME280;52283;49.292;10.572;2023-08-12T08:56:21;96723.00;;;24.81;96.44
65614;BME280;52283;49.292;10.572;2023-08-12T08:58:47;96723.81;;;24.64;98.15
65614;BME280;52283;49.292;10.572;2023-08-12T09:01:14;96725.47;;;24.67;99.90
65614;BME280;52283;49.292;10.572;2023-08-12T09:03:42;96721.50;;;24.80;97.99
65614;BME280;52283;49.292;10.572;2023-08-12T09:06:10;96725.44;;;24.94;98.42
65614;BME280;52283;49.292;10.572;2023-08-12T09:08:39;96713.56;;;25.25;95.05
65614;BME280;52283;49.292;10.572;2023-08-12T09:11:07;96724.81;;;25.13;96.86
65614;BME280;52283;49.292;10.572;2023-08-12T09:13:34;96701.63;;;25.74;90.65
65614;BME280;52283;49.292;10.572;2023-08-12T09:16:00;96692.66;;;26.98;84.97
65614;BME280;52283;49.292;10.572;2023-08-12T09:18:29;96678.50;;;27.95;78.56
65614;BME280;52283;49.292;10.572;2023-08-12T09:20:56;96683.00;;;27.34;76.83
65614;BME280;52283;49.292;10.572;2023-08-12T09:23:25;96694.72;;;27.69;76.63
65614;BME280;52283;49.292;10.572;2023-08-12T09:25:52;96687.16;;;28.28;73.75
65614;BME280;52283;49.292;10.572;2023-08-12T09:28:19;96693.53;;;28.83;71.07
65614;BME280;52283;49.292;10.572;2023-08-12T09:30:50;96691.50;;;27.96;71.54
65614;BME280;52283;49.292;10.572;2023-08-12T09:33:24;96686.69;;;28.43;69.98
65614;BME280;52283;49.292;10.572;2023-08-12T09:35:51;96697.22;;;27.32;74.67
65614;BME280;52283;49.292;10.572;2023-08-12T09:38:18;96700.09;;;27.53;74.18
65614;BME280;52283;49.292;10.572;2023-08-12T09:40:46;96680.81;;;28.41;68.18
65614;BME280;52283;49.292;10.572;2023-08-12T09:43:13;96678.38;;;28.71;66.61
65614;BME280;52283;49.292;10.572;2023-08-12T09:45:44;96684.16;;;28.94;65.54
65614;BME280;52283;49.292;10.572;2023-08-12T09:48:11;96682.31;;;29.10;65.77
65614;BME280;52283;49.292;10.572;2023-08-12T09:50:38;96682.97;;;28.52;66.45
65614;BME280;52283;49.292;10.572;2023-08-12T09:53:05;96683.03;;;28.31;66.96
65614;BME280;52283;49.292;10.572;2023-08-12T09:55:31;96677.53;;;29.38;65.05
65614;BME280;52283;49.292;10.572;2023-08-12T09:58:06;96669.16;;;29.07;64.74
65614;BME280;52283;49.292;10.572;2023-08-12T10:00:33;96663.72;;;29.72;63.77
65614;BME280;52283;49.292;10.572;2023-08-12T10:03:00;96671.19;;;29.17;65.67
65614;BME280;52283;49.292;10.572;2023-08-12T10:05:31;96674.53;;;30.09;62.74
65614;BME280;52283;49.292;10.572;2023-08-12T10:07:58;96677.53;;;29.62;63.52
65614;BME280;52283;49.292;10.572;2023-08-12T10:10:27;96675.41;;;28.80;65.35
65614;BME280;52283;49.292;10.572;2023-08-12T10:12:53;96677.53;;;29.15;65.15
65614;BME280;52283;49.292;10.572;2023-08-12T10:15:22;96678.78;;;29.12;64.24
65614;BME280;52283;49.292;10.572;2023-08-12T10:17:48;96670.41;;;29.39;62.19
65614;BME280;52283;49.292;10.572;2023-08-12T10:20:22;96671.53;;;29.11;65.39
65614;BME280;52283;49.292;10.572;2023-08-12T10:22:49;96679.94;;;28.39;68.13
65614;BME280;52283;49.292;10.572;2023-08-12T10:25:18;96669.41;;;28.76;68.50
65614;BME280;52283;49.292;10.572;2023-08-12T10:27:47;96649.44;;;30.37;62.55
65614;BME280;52283;49.292;10.572;2023-08-12T10:30:13;96643.47;;;30.72;59.21
65614;BME280;52283;49.292;10.572;2023-08-12T10:32:41;96652.84;;;30.08;61.19
65614;BME280;52283;49.292;10.572;2023-08-12T10:35:09;96648.53;;;30.99;60.13
65614;BME280;52283;49.292;10.572;2023-08-12T10:37:35;96658.03;;;28.90;64.90
65614;BME280;52283;49.292;10.572;2023-08-12T10:40:04;96665.97;;;28.45;68.07
65614;BME280;52283;49.292;10.572;2023-08-12T10:42:42;96653.50;;;29.57;64.45
65614;BME280;52283;49.292;10.572;2023-08-12T10:45:10;96652.84;;;30.08;63.72
65614;BME280;52283;49.292;10.572;2023-08-12T10:47:42;96662.03;;;29.32;67.48
65614;BME280;52283;49.292;10.572;2023-08-12T10:50:17;96660.00;;;28.64;69.17
65614;BME280;52283;49.292;10.572;2023-08-12T10:52:44;96644.47;;;30.00;64.24
65614;BME280;52283;49.292;10.572;2023-08-12T10:55:18;96616.09;;;31.26;59.23
65614;BME280;52283;49.292;10.572;2023-08-12T10:57:46;96613.31;;;30.61;57.69
65614;BME280;52283;49.292;10.572;2023-08-12T11:00:14;96633.66;;;29.75;63.71
65614;BME280;52283;49.292;10.572;2023-08-12T11:02:46;96642.28;;;28.91;65.38
65614;BME280;52283;49.292;10.572;2023-08-12T11:05:14;96638.00;;;28.12;66.71
65614;BME280;52283;49.292;10.572;2023-08-12T11:07:42;96647.66;;;28.29;68.48
65614;BME280;52283;49.292;10.572;2023-08-12T11:10:11;96643.59;;;28.43;69.94
65614;BME280;52283;49.292;10.572;2023-08-12T11:12:39;96639.06;;;29.69;65.43
65614;BME280;52283;49.292;10.572;2023-08-12T11:15:06;96621.53;;;30.02;61.94
65614;BME280;52283;49.292;10.572;2023-08-12T11:17:34;96620.00;;;29.15;62.80
65614;BME280;52283;49.292;10.572;2023-08-12T11:20:04;96617.09;;;29.38;62.13
65614;BME280;52283;49.292;10.572;2023-08-12T11:22:31;96602.56;;;30.75;58.85
65614;BME280;52283;49.292;10.572;2023-08-12T11:24:58;96596.28;;;30.92;57.55
65614;BME280;52283;49.292;10.572;2023-08-12T11:27:26;96614.25;;;29.75;61.92
65614;BME280;52283;49.292;10.572;2023-08-12T11:29:52;96619.75;;;29.23;61.61
65614;BME280;52283;49.292;10.572;2023-08-12T11:32:19;96617.22;;;29.29;63.70
65614;BME280;52283;49.292;10.572;2023-08-12T11:34:45;96607.84;;;29.28;62.06
65614;BME280;52283;49.292;10.572;2023-08-12T11:37:13;96610.38;;;29.71;60.98
65614;BME280;52283;49.292;10.572;2023-08-12T11:39:40;96601.00;;;29.70;63.12
65614;BME280;52283;49.292;10.572;2023-08-12T11:42:06;96590.06;;;29.81;59.61
65614;BME280;52283;49.292;10.572;2023-08-12T11:44:33;96570.38;;;31.49;56.95
65614;BME280;52283;49.292;10.572;2023-08-12T11:46:59;96568.44;;;30.05;58.36
65614;BME280;52283;49.292;10.572;2023-08-12T11:49:26;96565.84;;;31.17;55.95
65614;BME280;52283;49.292;10.572;2023-08-12T11:51:52;96547.34;;;31.08;52.29
65614;BME280;52283;49.292;10.572;2023-08-12T11:54:20;96541.34;;;31.32;51.26
65614;BME280;52283;49.292;10.572;2023-08-12T11:56:47;96539.28;;;30.52;53.41
65614;BME280;52283;49.292;10.572;2023-08-12T11:59:14;96528.22;;;30.87;52.86
65614;BME280;52283;49.292;10.572;2023-08-12T12:01:40;96524.44;;;31.12;53.14
65614;BME280;52283;49.292;10.572;2023-08-12T12:04:11;96524.59;;;29.95;57.23
65614;BME280;52283;49.292;10.572;2023-08-12T12:06:37;96526.19;;;30.62;53.97
65614;BME280;52283;49.292;10.572;2023-08-12T12:09:05;96528.38;;;31.33;53.59
65614;BME280;52283;49.292;10.572;2023-08-12T12:11:36;96518.38;;;30.92;52.38
65614;BME280;52283;49.292;10.572;2023-08-12T12:14:03;96529.22;;;31.49;52.88
65614;BME280;52283;49.292;10.572;2023-08-12T12:16:41;96517.59;;;31.33;52.39
65614;BME280;52283;49.292;10.572;2023-08-12T12:19:14;96525.44;;;31.90;54.98
65614;BME280;52283;49.292;10.572;2023-08-12T12:21:41;96507.78;;;32.60;50.42
65614;BME280;52283;49.292;10.572;2023-08-12T12:24:09;96515.34;;;31.32;50.60
65614;BME280;52283;49.292;10.572;2023-08-12T12:26:37;96518.22;;;31.45;49.76
65614;BME280;52283;49.292;10.572;2023-08-12T12:29:04;96510.22;;;32.34;49.53
65614;BME280;52283;49.292;10.572;2023-08-12T12:31:32;96526.94;;;30.90;51.52
65614;BME280;52283;49.292;10.572;2023-08-12T12:33:59;96542.13;;;30.38;54.50
65614;BME280;52283;49.292;10.572;2023-08-12T12:36:25;96549.28;;;30.37;54.65
65614;BME280;52283;49.292;10.572;2023-08-12T12:38:52;96566.31;;;30.19;56.24
65614;BME280;52283;49.292;10.572;2023-08-12T12:41:18;96574.41;;;29.47;58.74
65614;BME280;52283;49.292;10.572;2023-08-12T12:43:46;96580.25;;;29.60;58.61